This is the latest recevied weather packets stored in our database for station/object Reichnbch. If no packets are shown the sender has not sent any weather packets the latest 10 day(s).
| Time | Temp. | Humidity | Pressure | Rain* | Wind** | Luminosity | Snow |
|---|---|---|---|---|---|---|---|
| 1778083330 | 12.22° C | 77% | 1008.5 hPa | 5.59 mm | - | - | - |
| 1778081531 | 12.78° C | 79% | 1008.3 hPa | 4.83 mm | - | - | - |
| 1778079730 | 12.22° C | 81% | 1008.3 hPa | 2.29 mm | - | - | - |
| 1778077930 | 13.33° C | 82% | 1007.9 hPa | 1.52 mm | - | - | - |
| 1778076131 | 14.44° C | 84% | 1007.6 hPa | 0.76 mm | - | - | - |
| 1778074331 | 15° C | 82% | 1007 hPa | 0.76 mm | - | - | - |
| 1778072531 | 16.67° C | 75% | 1006.6 hPa | 0.25 mm | - | - | - |
| 1778070730 | 17.78° C | 74% | 1006.6 hPa | 0.25 mm | - | - | - |
| 1778068930 | 17.78° C | 72% | 1006.6 hPa | 0.25 mm | - | - | - |
| 1778067137 | 17.22° C | 66% | 1007 hPa | 0.25 mm | - | - | - |
| 1778065330 | 16.67° C | 71% | 1007.2 hPa | 0.25 mm | - | - | - |
| 1778061734 | 15.56° C | 83% | 1007.7 hPa | 0.25 mm | - | - | - |
| 1778059931 | 14.44° C | 82% | 1007.7 hPa | 0.25 mm | - | - | - |
| 1778058131 | 13.33° C | 75% | 1007.8 hPa | 0.25 mm | - | - | - |
| 1778056331 | 11.67° C | 74% | 1007.9 hPa | 0.25 mm | - | - | - |
| 1778054532 | 11.67° C | 74% | 1008 hPa | 0.25 mm | - | - | - |
| 1778052731 | 11.11° C | 74% | 1008.2 hPa | 0.25 mm | - | - | - |
| 1778050932 | 10° C | 74% | 1007.9 hPa | 0.25 mm | - | - | - |
| 1778049131 | 9.44° C | 75% | 1007.9 hPa | 0.25 mm | - | - | - |
| 1778047331 | 8.89° C | 75% | 1007.9 hPa | 0.25 mm | - | - | - |
| 1778045531 | 8.33° C | 75% | 1008 hPa | 0.25 mm | - | - | - |
| 1778043731 | 8.33° C | 75% | 1008.2 hPa | 0.25 mm | - | - | - |
| 1778041932 | 8.33° C | 75% | 1008.1 hPa | 0.25 mm | - | - | - |
| 1778040131 | 7.78° C | 75% | 1008.3 hPa | 0.25 mm | - | - | - |
| 1778038331 | 7.78° C | 76% | 1008.8 hPa | 0.25 mm | - | - | - |
* Rain since midnight (hover to see other rain measurements)
** Current wind speed in m/s (hover to see current wind gust speed)